createdAt,value
2017-07-06T00:00:36.400Z,1014.35
2017-07-06T00:01:16.976Z,1014.32
2017-07-06T00:01:57.546Z,1014.39
2017-07-06T00:02:38.117Z,1014.37
2017-07-06T00:03:18.708Z,1014.36
2017-07-06T00:03:59.278Z,1014.38
2017-07-06T00:04:39.839Z,1014.35
2017-07-06T00:05:20.417Z,1014.37
2017-07-06T00:06:01.007Z,1014.4
2017-07-06T00:06:41.561Z,1014.38
2017-07-06T00:07:22.134Z,1014.39
2017-07-06T00:08:02.702Z,1014.41
2017-07-06T00:08:43.258Z,1014.41
2017-07-06T00:09:23.838Z,1014.38
2017-07-06T00:10:04.395Z,1014.41
2017-07-06T00:10:44.978Z,1014.4
2017-07-06T00:11:25.557Z,1014.37
2017-07-06T00:12:06.132Z,1014.36
2017-07-06T00:12:46.893Z,1014.37
2017-07-06T00:13:27.474Z,1014.38
2017-07-06T00:14:08.066Z,1014.36
2017-07-06T00:14:48.625Z,1014.35
2017-07-06T00:15:29.197Z,1014.36
2017-07-06T00:16:10.703Z,1014.37
2017-07-06T00:16:51.362Z,1014.33
2017-07-06T00:17:31.946Z,1014.35
2017-07-06T00:18:12.493Z,1014.34
2017-07-06T00:18:53.080Z,1014.34
2017-07-06T00:19:33.667Z,1014.32
2017-07-06T00:20:14.349Z,1014.36
2017-07-06T00:20:54.907Z,1014.36
2017-07-06T00:21:35.488Z,1014.34
2017-07-06T00:22:16.064Z,1014.34
2017-07-06T00:22:56.666Z,1014.38
2017-07-06T00:23:37.263Z,1014.34
2017-07-06T00:24:17.821Z,1014.38
2017-07-06T00:24:58.396Z,1014.38
2017-07-06T00:25:38.985Z,1014.37
2017-07-06T00:26:19.573Z,1014.36
2017-07-06T00:27:00.142Z,1014.39
2017-07-06T00:27:40.740Z,1014.36
2017-07-06T00:28:21.309Z,1014.37
2017-07-06T00:29:01.892Z,1014.38
2017-07-06T00:29:42.484Z,1014.32
2017-07-06T00:30:23.031Z,1014.3
2017-07-06T00:31:03.599Z,1014.33
2017-07-06T00:31:44.173Z,1014.29
2017-07-06T00:32:24.738Z,1014.29
2017-07-06T00:33:05.309Z,1014.28
2017-07-06T00:33:45.883Z,1014.29
2017-07-06T00:34:26.458Z,1014.31
2017-07-06T00:35:07.023Z,1014.29
2017-07-06T00:35:47.597Z,1014.3
2017-07-06T00:36:28.167Z,1014.29
2017-07-06T00:37:08.782Z,1014.33
2017-07-06T00:37:49.342Z,1014.31
2017-07-06T00:38:29.914Z,1014.32
2017-07-06T00:39:10.479Z,1014.35
2017-07-06T00:39:51.051Z,1014.4
2017-07-06T00:40:31.637Z,1014.38
2017-07-06T00:41:12.205Z,1014.36
2017-07-06T00:41:52.813Z,1014.36
2017-07-06T00:42:33.389Z,1014.4
2017-07-06T00:43:13.951Z,1014.34
2017-07-06T00:43:54.522Z,1014.38
2017-07-06T00:44:35.083Z,1014.39
2017-07-06T00:45:15.659Z,1014.42
2017-07-06T00:45:56.224Z,1014.39
2017-07-06T00:46:36.797Z,1014.37
2017-07-06T00:47:17.364Z,1014.36
2017-07-06T00:47:57.934Z,1014.31
2017-07-06T00:48:38.501Z,1014.37
2017-07-06T00:49:19.078Z,1014.35
2017-07-06T00:49:59.664Z,1014.39
2017-07-06T00:50:40.273Z,1014.34
2017-07-06T00:51:20.851Z,1014.37
2017-07-06T00:52:01.415Z,1014.38
2017-07-06T00:52:41.986Z,1014.34
2017-07-06T00:53:22.575Z,1014.32
2017-07-06T00:54:03.162Z,1014.31
2017-07-06T00:54:43.726Z,1014.33
2017-07-06T00:55:24.293Z,1014.36
2017-07-06T00:56:04.856Z,1014.36
2017-07-06T00:56:45.429Z,1014.36
2017-07-06T00:57:26.020Z,1014.34
2017-07-06T00:58:06.599Z,1014.32
2017-07-06T00:58:47.179Z,1014.31
2017-07-06T00:59:27.756Z,1014.32
2017-07-06T01:00:08.332Z,1014.28
2017-07-06T01:00:48.912Z,1014.28
2017-07-06T01:01:29.481Z,1014.29
2017-07-06T01:02:10.045Z,1014.26
2017-07-06T01:02:50.624Z,1014.29
2017-07-06T01:03:31.227Z,1014.27
2017-07-06T01:04:11.830Z,1014.23
2017-07-06T01:04:52.412Z,1014.24
2017-07-06T01:05:33.004Z,1014.28
2017-07-06T01:06:13.579Z,1014.24
2017-07-06T01:06:54.180Z,1014.23
2017-07-06T01:07:34.779Z,1014.24
2017-07-06T01:08:15.360Z,1014.18
2017-07-06T01:08:55.964Z,1014.2
2017-07-06T01:09:36.514Z,1014.25
2017-07-06T01:10:17.114Z,1014.2
2017-07-06T01:10:57.658Z,1014.21
2017-07-06T01:11:38.247Z,1014.21
2017-07-06T01:12:18.853Z,1014.23
2017-07-06T01:12:59.420Z,1014.18
2017-07-06T01:13:40.008Z,1014.22
2017-07-06T01:14:20.579Z,1014.24
2017-07-06T01:15:01.152Z,1014.21
2017-07-06T01:15:41.745Z,1014.24
2017-07-06T01:16:22.330Z,1014.26
2017-07-06T01:17:02.943Z,1014.24
2017-07-06T01:17:43.530Z,1014.27
2017-07-06T01:18:24.134Z,1014.21
2017-07-06T01:19:04.726Z,1014.25
2017-07-06T01:19:45.292Z,1014.24
2017-07-06T01:20:25.878Z,1014.22
2017-07-06T01:21:06.444Z,1014.21
2017-07-06T01:21:47.070Z,1014.26
2017-07-06T01:22:27.580Z,1014.25
2017-07-06T01:23:08.176Z,1014.26
2017-07-06T01:23:48.751Z,1014.2
2017-07-06T01:24:29.312Z,1014.21
2017-07-06T01:25:09.879Z,1014.24
2017-07-06T01:25:50.443Z,1014.23
2017-07-06T01:26:31.000Z,1014.29
2017-07-06T01:27:11.592Z,1014.26
2017-07-06T01:27:52.155Z,1014.21
2017-07-06T01:28:32.738Z,1014.25
2017-07-06T01:29:13.322Z,1014.24
2017-07-06T01:29:53.901Z,1014.26
2017-07-06T01:30:34.482Z,1014.26
2017-07-06T01:31:15.073Z,1014.27
2017-07-06T01:31:55.651Z,1014.26
2017-07-06T01:32:36.223Z,1014.26
2017-07-06T01:33:16.793Z,1014.27
2017-07-06T01:33:57.379Z,1014.27
2017-07-06T01:34:37.957Z,1014.29
2017-07-06T01:35:18.528Z,1014.26
2017-07-06T01:35:59.092Z,1014.26
2017-07-06T01:36:39.654Z,1014.26
2017-07-06T01:37:20.235Z,1014.28
2017-07-06T01:38:00.809Z,1014.26
2017-07-06T01:38:41.382Z,1014.25
2017-07-06T01:39:21.954Z,1014.26
2017-07-06T01:40:02.509Z,1014.24
2017-07-06T01:40:43.090Z,1014.24
2017-07-06T01:41:23.653Z,1014.29
2017-07-06T01:42:04.231Z,1014.28
2017-07-06T01:42:44.801Z,1014.27
2017-07-06T01:43:25.366Z,1014.26
2017-07-06T01:44:05.942Z,1014.29
2017-07-06T01:44:46.511Z,1014.31
2017-07-06T01:45:27.082Z,1014.3
2017-07-06T01:46:07.653Z,1014.33
2017-07-06T01:46:48.228Z,1014.27
2017-07-06T01:47:28.797Z,1014.28
2017-07-06T01:48:09.373Z,1014.3
2017-07-06T01:48:49.967Z,1014.27
2017-07-06T01:49:30.559Z,1014.31
2017-07-06T01:50:11.134Z,1014.28
2017-07-06T01:50:51.724Z,1014.31
2017-07-06T01:51:32.323Z,1014.3
2017-07-06T01:52:12.902Z,1014.33
2017-07-06T01:52:53.483Z,1014.31
2017-07-06T01:53:34.052Z,1014.31
2017-07-06T01:54:14.671Z,1014.34
2017-07-06T01:54:55.279Z,1014.33
2017-07-06T01:55:35.885Z,1014.32
2017-07-06T01:56:16.506Z,1014.34
2017-07-06T01:56:57.126Z,1014.29
2017-07-06T01:57:37.692Z,1014.4
2017-07-06T01:58:18.283Z,1014.35
2017-07-06T01:58:58.869Z,1014.35
2017-07-06T01:59:39.492Z,1014.37
2017-07-06T02:00:20.058Z,1014.38
2017-07-06T02:01:00.624Z,1014.37
2017-07-06T02:01:41.195Z,1014.39
2017-07-06T02:02:21.757Z,1014.39
2017-07-06T02:03:02.342Z,1014.36
2017-07-06T02:03:42.934Z,1014.37
2017-07-06T02:04:23.512Z,1014.38
2017-07-06T02:05:04.111Z,1014.37
2017-07-06T02:05:44.689Z,1014.39
2017-07-06T02:06:25.278Z,1014.38
2017-07-06T02:07:05.875Z,1014.43
2017-07-06T02:07:46.460Z,1014.41
2017-07-06T02:08:27.034Z,1014.43
2017-07-06T02:09:07.624Z,1014.42
2017-07-06T02:09:48.199Z,1014.41
2017-07-06T02:10:28.774Z,1014.42
2017-07-06T02:11:09.377Z,1014.42
2017-07-06T02:11:50.007Z,1014.4
2017-07-06T02:12:30.580Z,1014.43
2017-07-06T02:13:11.155Z,1014.42
2017-07-06T02:13:51.733Z,1014.41
2017-07-06T02:14:32.369Z,1014.45
2017-07-06T02:15:12.921Z,1014.49
2017-07-06T02:15:53.529Z,1014.53
2017-07-06T02:16:34.121Z,1014.49
2017-07-06T02:17:14.704Z,1014.48
2017-07-06T02:17:55.276Z,1014.48
2017-07-06T02:18:35.849Z,1014.5
2017-07-06T02:19:16.431Z,1014.52
2017-07-06T02:19:57.023Z,1014.53
2017-07-06T02:20:37.607Z,1014.55
2017-07-06T02:21:18.191Z,1014.49
2017-07-06T02:21:58.776Z,1014.52
2017-07-06T02:22:39.361Z,1014.54
2017-07-06T02:23:19.948Z,1014.54
2017-07-06T02:24:00.529Z,1014.55
2017-07-06T02:24:41.111Z,1014.51
2017-07-06T02:25:21.696Z,1014.53
2017-07-06T02:26:02.277Z,1014.54
2017-07-06T02:26:42.872Z,1014.53
2017-07-06T02:27:23.462Z,1014.48
2017-07-06T02:28:04.038Z,1014.52
2017-07-06T02:28:44.599Z,1014.55
2017-07-06T02:29:25.197Z,1014.53
2017-07-06T02:30:05.765Z,1014.51
2017-07-06T02:30:46.346Z,1014.51
2017-07-06T02:31:26.898Z,1014.52
2017-07-06T02:32:07.454Z,1014.51
2017-07-06T02:32:48.049Z,1014.51
2017-07-06T02:33:28.645Z,1014.44
2017-07-06T02:34:09.225Z,1014.52
2017-07-06T02:34:49.803Z,1014.52
2017-07-06T02:35:30.378Z,1014.49
2017-07-06T02:36:10.956Z,1014.49
2017-07-06T02:36:51.542Z,1014.47
2017-07-06T02:37:32.113Z,1014.47
2017-07-06T02:38:12.706Z,1014.51
2017-07-06T02:38:53.284Z,1014.51
2017-07-06T02:39:33.907Z,1014.52
2017-07-06T02:40:14.596Z,1014.53
2017-07-06T02:40:55.171Z,1014.52
2017-07-06T02:41:35.765Z,1014.53
2017-07-06T02:42:16.356Z,1014.52
2017-07-06T02:42:56.927Z,1014.52
2017-07-06T02:43:37.528Z,1014.54
2017-07-06T02:44:18.123Z,1014.49
2017-07-06T02:44:58.720Z,1014.51
2017-07-06T02:45:39.311Z,1014.53
2017-07-06T02:46:19.899Z,1014.55
2017-07-06T02:47:00.478Z,1014.53
2017-07-06T02:47:41.071Z,1014.54
2017-07-06T02:48:21.633Z,1014.54
2017-07-06T02:49:02.231Z,1014.54
2017-07-06T02:49:42.789Z,1014.49
2017-07-06T02:50:23.367Z,1014.51
2017-07-06T02:51:03.928Z,1014.54
2017-07-06T02:51:44.492Z,1014.55
2017-07-06T02:52:25.060Z,1014.55
2017-07-06T02:53:05.634Z,1014.52
2017-07-06T02:53:46.265Z,1014.51
2017-07-06T02:54:26.867Z,1014.55
2017-07-06T02:55:07.476Z,1014.51
2017-07-06T02:55:48.038Z,1014.52
2017-07-06T02:56:28.646Z,1014.54
2017-07-06T02:57:09.222Z,1014.53
2017-07-06T02:57:49.793Z,1014.53
2017-07-06T02:58:30.379Z,1014.55
2017-07-06T02:59:10.946Z,1014.54
2017-07-06T02:59:51.522Z,1014.54
2017-07-06T03:00:32.110Z,1014.57
2017-07-06T03:01:12.685Z,1014.54
2017-07-06T03:01:53.253Z,1014.6
2017-07-06T03:02:33.838Z,1014.52
2017-07-06T03:03:14.412Z,1014.54
2017-07-06T03:03:54.974Z,1014.52
2017-07-06T03:04:35.564Z,1014.56
2017-07-06T03:05:16.132Z,1014.58
2017-07-06T03:05:56.766Z,1014.6
2017-07-06T03:06:37.337Z,1014.66
2017-07-06T03:07:17.909Z,1014.61
2017-07-06T03:07:58.506Z,1014.63
2017-07-06T03:08:39.097Z,1014.6
2017-07-06T03:09:19.670Z,1014.63
2017-07-06T03:10:00.256Z,1014.64
2017-07-06T03:10:40.821Z,1014.64
2017-07-06T03:11:21.396Z,1014.62
2017-07-06T03:12:01.974Z,1014.6
2017-07-06T03:12:42.565Z,1014.65
2017-07-06T03:13:23.145Z,1014.63
2017-07-06T03:14:03.766Z,1014.61
2017-07-06T03:14:44.343Z,1014.63
2017-07-06T03:15:24.891Z,1014.61
2017-07-06T03:16:05.455Z,1014.65
2017-07-06T03:16:46.037Z,1014.62
2017-07-06T03:17:26.624Z,1014.65
2017-07-06T03:18:07.229Z,1014.62
2017-07-06T03:18:47.787Z,1014.62
2017-07-06T03:19:28.385Z,1014.61
2017-07-06T03:20:09.001Z,1014.64
2017-07-06T03:20:49.587Z,1014.61
2017-07-06T03:21:30.153Z,1014.63
2017-07-06T03:22:10.765Z,1014.61
2017-07-06T03:22:51.334Z,1014.6
2017-07-06T03:23:31.909Z,1014.64
2017-07-06T03:24:12.464Z,1014.57
2017-07-06T03:24:53.054Z,1014.6
2017-07-06T03:25:33.647Z,1014.61
2017-07-06T03:26:14.195Z,1014.63
2017-07-06T03:26:54.798Z,1014.61
2017-07-06T03:27:35.381Z,1014.62
2017-07-06T03:28:15.965Z,1014.58
2017-07-06T03:28:56.538Z,1014.63
2017-07-06T03:29:37.110Z,1014.59
2017-07-06T03:30:17.680Z,1014.58
2017-07-06T03:30:58.271Z,1014.58
2017-07-06T03:31:38.865Z,1014.61
2017-07-06T03:32:19.526Z,1014.61
2017-07-06T03:33:00.103Z,1014.6
2017-07-06T03:33:40.689Z,1014.6
2017-07-06T03:34:21.279Z,1014.64
2017-07-06T03:35:01.859Z,1014.64
2017-07-06T03:35:42.423Z,1014.59
2017-07-06T03:36:22.989Z,1014.62
2017-07-06T03:37:03.582Z,1014.61
2017-07-06T03:37:44.163Z,1014.57
2017-07-06T03:38:24.750Z,1014.59
2017-07-06T03:39:05.323Z,1014.61
2017-07-06T03:39:45.926Z,1014.61
2017-07-06T03:40:26.518Z,1014.64
2017-07-06T03:41:07.086Z,1014.67
2017-07-06T03:41:47.645Z,1014.65
2017-07-06T03:42:28.231Z,1014.66
2017-07-06T03:43:08.805Z,1014.67
2017-07-06T03:43:49.395Z,1014.65
2017-07-06T03:44:30.008Z,1014.68
2017-07-06T03:45:10.582Z,1014.67
2017-07-06T03:45:51.171Z,1014.61
2017-07-06T03:46:31.741Z,1014.62
2017-07-06T03:47:12.364Z,1014.64
2017-07-06T03:47:52.953Z,1014.62
2017-07-06T03:48:33.549Z,1014.66
2017-07-06T03:49:14.110Z,1014.62
2017-07-06T03:49:54.697Z,1014.63
2017-07-06T03:50:35.263Z,1014.64
2017-07-06T03:51:15.860Z,1014.64
2017-07-06T03:51:56.407Z,1014.65
2017-07-06T03:52:36.991Z,1014.67
2017-07-06T03:53:17.577Z,1014.64
2017-07-06T03:53:58.144Z,1014.67
2017-07-06T03:54:38.708Z,1014.68
2017-07-06T03:55:19.273Z,1014.65
2017-07-06T03:55:59.865Z,1014.69
2017-07-06T03:56:40.422Z,1014.64
2017-07-06T03:57:21.005Z,1014.68
2017-07-06T03:58:01.564Z,1014.67
2017-07-06T03:58:42.130Z,1014.63
2017-07-06T03:59:22.700Z,1014.68
2017-07-06T04:00:03.267Z,1014.67
2017-07-06T04:00:43.847Z,1014.66
2017-07-06T04:01:24.417Z,1014.72
2017-07-06T04:02:04.999Z,1014.68
2017-07-06T04:02:45.579Z,1014.68
2017-07-06T04:03:26.174Z,1014.65
2017-07-06T04:04:06.732Z,1014.66
2017-07-06T04:04:47.311Z,1014.65
2017-07-06T04:05:27.889Z,1014.66
2017-07-06T04:06:08.470Z,1014.65
2017-07-06T04:06:49.033Z,1014.63
2017-07-06T04:07:29.620Z,1014.61
2017-07-06T04:08:10.221Z,1014.61
2017-07-06T04:08:50.782Z,1014.61
2017-07-06T04:09:31.341Z,1014.64
2017-07-06T04:10:11.932Z,1014.62
2017-07-06T04:10:52.536Z,1014.68
2017-07-06T04:11:33.107Z,1014.71
2017-07-06T04:12:13.683Z,1014.74
2017-07-06T04:12:54.284Z,1014.73
2017-07-06T04:13:34.877Z,1014.72
2017-07-06T04:14:15.434Z,1014.74
2017-07-06T04:14:56.012Z,1014.76
2017-07-06T04:15:36.587Z,1014.75
2017-07-06T04:16:17.156Z,1014.79
2017-07-06T04:16:57.744Z,1014.77
2017-07-06T04:17:38.335Z,1014.71
2017-07-06T04:18:18.947Z,1014.73
2017-07-06T04:18:59.516Z,1014.69
2017-07-06T04:19:40.101Z,1014.7
2017-07-06T04:20:20.686Z,1014.69
2017-07-06T04:21:01.269Z,1014.65
2017-07-06T04:21:41.893Z,1014.69
2017-07-06T04:22:22.439Z,1014.71
2017-07-06T04:23:03.010Z,1014.75
2017-07-06T04:23:43.573Z,1014.75
2017-07-06T04:24:24.138Z,1014.76
2017-07-06T04:25:04.704Z,1014.76
2017-07-06T04:25:45.274Z,1014.78
2017-07-06T04:26:25.854Z,1014.82
2017-07-06T04:27:06.429Z,1014.81
2017-07-06T04:27:47.013Z,1014.81
2017-07-06T04:28:27.608Z,1014.82
2017-07-06T04:29:08.179Z,1014.87
2017-07-06T04:29:48.795Z,1014.85
2017-07-06T04:30:29.376Z,1014.86
2017-07-06T04:31:10.011Z,1014.85
2017-07-06T04:31:50.557Z,1014.87
2017-07-06T04:32:31.116Z,1014.88
2017-07-06T04:33:11.730Z,1014.91
2017-07-06T04:33:52.312Z,1014.88
2017-07-06T04:34:32.899Z,1014.86
2017-07-06T04:35:13.482Z,1014.87
2017-07-06T04:35:54.083Z,1014.87
2017-07-06T04:36:34.643Z,1014.86
2017-07-06T04:37:15.227Z,1014.89
2017-07-06T04:37:55.786Z,1014.92
2017-07-06T04:38:36.374Z,1014.89
2017-07-06T04:39:16.947Z,1014.93
2017-07-06T04:39:57.538Z,1014.91
2017-07-06T04:40:38.104Z,1014.97
2017-07-06T04:41:18.679Z,1014.96
2017-07-06T04:41:59.293Z,1014.95
2017-07-06T04:42:39.872Z,1014.99
2017-07-06T04:43:20.444Z,1014.99
2017-07-06T04:44:01.011Z,1015.02
2017-07-06T04:44:41.587Z,1014.99
2017-07-06T04:45:22.164Z,1014.99
2017-07-06T04:46:02.733Z,1014.94
2017-07-06T04:46:43.292Z,1014.94
2017-07-06T04:47:23.899Z,1014.96
2017-07-06T04:48:04.506Z,1014.99
2017-07-06T04:48:45.112Z,1014.97
2017-07-06T04:49:25.690Z,1014.97
2017-07-06T04:50:06.310Z,1014.99
2017-07-06T04:50:46.904Z,1014.98
2017-07-06T04:51:27.529Z,1015
2017-07-06T04:52:08.133Z,1014.97
2017-07-06T04:52:48.841Z,1015.01
2017-07-06T04:53:29.514Z,1015.02
2017-07-06T04:54:10.070Z,1015.02
2017-07-06T04:54:50.641Z,1015.02
2017-07-06T04:55:31.266Z,1015.02
2017-07-06T04:56:11.875Z,1015.02
2017-07-06T04:56:52.692Z,1015.04
2017-07-06T04:57:34.153Z,1015.02
2017-07-06T04:58:14.728Z,1015
2017-07-06T04:58:55.483Z,1015.04
2017-07-06T04:59:36.115Z,1015.07
2017-07-06T05:00:16.760Z,1015.03
2017-07-06T05:00:57.528Z,1015.05
2017-07-06T05:01:38.291Z,1015.02
2017-07-06T05:02:18.957Z,1015.06
2017-07-06T05:02:59.542Z,1015.03
2017-07-06T05:03:40.120Z,1015.06
2017-07-06T05:04:20.695Z,1015.06
2017-07-06T05:05:01.273Z,1015.05
2017-07-06T05:05:41.812Z,1015.06
2017-07-06T05:06:22.370Z,1015.08
2017-07-06T05:07:02.987Z,1015.05
2017-07-06T05:07:43.568Z,1015.02
2017-07-06T05:08:24.142Z,1015.07
2017-07-06T05:09:04.746Z,1015.04
2017-07-06T05:09:45.316Z,1015.04
2017-07-06T05:10:25.885Z,1015.09
2017-07-06T05:11:06.456Z,1015.04
2017-07-06T05:11:47.033Z,1015.09
2017-07-06T05:12:27.642Z,1015.06
2017-07-06T05:13:08.246Z,1015.08
2017-07-06T05:13:48.860Z,1015.06
2017-07-06T05:14:29.444Z,1015.03
2017-07-06T05:15:10.006Z,1015.04
2017-07-06T05:15:50.580Z,1015.03
2017-07-06T05:16:31.183Z,1015.04
2017-07-06T05:17:11.749Z,1015.05
2017-07-06T05:17:52.321Z,1015.07
2017-07-06T05:18:32.912Z,1015.07
2017-07-06T05:19:13.476Z,1015.08
2017-07-06T05:19:54.055Z,1015.11
2017-07-06T05:20:34.625Z,1015.11
2017-07-06T05:21:15.208Z,1015.16
2017-07-06T05:21:55.771Z,1015.16
2017-07-06T05:22:36.353Z,1015.14
2017-07-06T05:23:16.923Z,1015.13
2017-07-06T05:23:57.492Z,1015.14
2017-07-06T05:24:38.064Z,1015.16
2017-07-06T05:25:18.629Z,1015.15
2017-07-06T05:25:59.217Z,1015.12
2017-07-06T05:26:54.268Z,1015.17
2017-07-06T05:27:34.848Z,1015.12
2017-07-06T05:28:15.411Z,1015.12
2017-07-06T05:28:55.984Z,1015.12
2017-07-06T05:29:36.570Z,1015.12
2017-07-06T05:30:17.157Z,1015.13
2017-07-06T05:30:57.729Z,1015.12
2017-07-06T05:31:38.314Z,1015.12
2017-07-06T05:32:18.911Z,1015.17
2017-07-06T05:32:59.475Z,1015.11
2017-07-06T05:33:40.066Z,1015.15
2017-07-06T05:34:20.629Z,1015.18
2017-07-06T05:35:01.216Z,1015.14
2017-07-06T05:35:41.780Z,1015.2
2017-07-06T05:36:22.353Z,1015.18
2017-07-06T05:37:02.916Z,1015.15
2017-07-06T05:37:43.487Z,1015.15
2017-07-06T05:38:24.071Z,1015.13
2017-07-06T05:39:04.685Z,1015.09
2017-07-06T05:39:45.258Z,1015.12
2017-07-06T05:40:25.830Z,1015.1
2017-07-06T05:41:06.401Z,1015.09
2017-07-06T05:41:46.972Z,1015.15
2017-07-06T05:42:27.543Z,1015.14
2017-07-06T05:43:08.135Z,1015.16
2017-07-06T05:43:48.715Z,1015.17
2017-07-06T05:44:29.293Z,1015.19
2017-07-06T05:45:09.873Z,1015.17
2017-07-06T05:45:50.448Z,1015.21
2017-07-06T05:46:31.055Z,1015.16
2017-07-06T05:47:11.634Z,1015.18
2017-07-06T05:47:52.198Z,1015.22
2017-07-06T05:48:32.791Z,1015.2
2017-07-06T05:49:13.376Z,1015.47
2017-07-06T05:49:53.969Z,1015.26
2017-07-06T05:50:34.532Z,1015.26
2017-07-06T05:51:15.110Z,1015.24
2017-07-06T05:51:55.683Z,1015.24
2017-07-06T05:52:36.468Z,1015.24
2017-07-06T05:53:16.872Z,1015.23
2017-07-06T05:53:57.455Z,1015.27
2017-07-06T05:54:38.027Z,1015.25
2017-07-06T05:55:18.654Z,1015.27
2017-07-06T05:55:59.256Z,1015.28
2017-07-06T05:56:39.880Z,1015.29
2017-07-06T05:57:20.455Z,1015.27
2017-07-06T05:58:01.038Z,1015.25
2017-07-06T05:58:41.634Z,1015.31
2017-07-06T05:59:22.231Z,1015.34
2017-07-06T06:00:02.843Z,1015.34
2017-07-06T06:00:43.430Z,1015.34
2017-07-06T06:01:24.428Z,1015.35
2017-07-06T06:02:05.136Z,1015.28
2017-07-06T06:02:45.772Z,1015.32
2017-07-06T06:03:26.297Z,1015.29
2017-07-06T06:04:06.859Z,1015.31
2017-07-06T06:04:47.528Z,1015.31
2017-07-06T06:05:28.101Z,1015.3
2017-07-06T06:06:08.830Z,1015.28
2017-07-06T06:06:49.499Z,1015.29
2017-07-06T06:07:30.133Z,1015.33
2017-07-06T06:08:10.712Z,1015.34
2017-07-06T06:08:51.355Z,1015.3
2017-07-06T06:09:31.945Z,1015.36
2017-07-06T06:10:12.538Z,1015.34
2017-07-06T06:10:53.121Z,1015.39
2017-07-06T06:11:33.736Z,1015.38
2017-07-06T06:12:14.319Z,1015.39
2017-07-06T06:12:54.920Z,1015.39
2017-07-06T06:13:35.498Z,1015.4
2017-07-06T06:14:16.084Z,1015.36
2017-07-06T06:14:56.817Z,1015.35
2017-07-06T06:15:37.383Z,1015.43
2017-07-06T06:16:18.026Z,1015.38
2017-07-06T06:16:58.551Z,1015.38
2017-07-06T06:17:39.133Z,1015.39
2017-07-06T06:18:19.763Z,1015.34
2017-07-06T06:19:00.336Z,1015.32
2017-07-06T06:19:40.925Z,1015.33
2017-07-06T06:20:21.499Z,1015.31
2017-07-06T06:21:02.063Z,1015.32
2017-07-06T06:21:42.625Z,1015.3
2017-07-06T06:22:23.208Z,1015.3
2017-07-06T06:23:03.783Z,1015.29
2017-07-06T06:23:44.369Z,1015.28
2017-07-06T06:24:24.936Z,1015.28
2017-07-06T06:25:05.502Z,1015.31
2017-07-06T06:25:46.086Z,1015.31
2017-07-06T06:26:26.709Z,1015.29
2017-07-06T06:27:07.283Z,1015.3
2017-07-06T06:27:47.846Z,1015.3
2017-07-06T06:28:28.406Z,1015.31
2017-07-06T06:29:08.966Z,1015.32
2017-07-06T06:29:49.544Z,1015.31
2017-07-06T06:30:30.143Z,1015.34
2017-07-06T06:31:10.720Z,1015.36
2017-07-06T06:31:51.298Z,1015.38
2017-07-06T06:32:31.872Z,1015.35
2017-07-06T06:33:12.555Z,1015.38
2017-07-06T06:33:53.149Z,1015.37
2017-07-06T06:34:33.729Z,1015.32
2017-07-06T06:35:14.288Z,1015.38
2017-07-06T06:35:54.858Z,1015.41
2017-07-06T06:36:35.433Z,1015.45
2017-07-06T06:37:16.010Z,1015.5
2017-07-06T06:37:56.581Z,1015.56
2017-07-06T06:38:37.158Z,1015.61
2017-07-06T06:39:17.723Z,1015.73
2017-07-06T06:39:58.287Z,1015.64
2017-07-06T06:40:38.864Z,1015.77
2017-07-06T06:41:19.439Z,1017.2
2017-07-06T06:42:00.004Z,1017.3
2017-07-06T06:42:40.590Z,1016.46
2017-07-06T06:43:21.171Z,1016.36
2017-07-06T06:44:01.756Z,1016.48
2017-07-06T06:44:42.373Z,1016.76
2017-07-06T06:45:22.971Z,1015.92
2017-07-06T06:46:03.575Z,1016.09
2017-07-06T06:46:44.127Z,1015.88
2017-07-06T06:47:24.713Z,1015.9
2017-07-06T06:48:05.286Z,1015.82
2017-07-06T06:48:45.873Z,1015.83
2017-07-06T06:49:26.450Z,1015.87
2017-07-06T06:50:07.027Z,1015.81
2017-07-06T06:50:47.623Z,1015.73
2017-07-06T06:51:28.183Z,1015.79
2017-07-06T06:52:08.776Z,1015.85
2017-07-06T06:52:49.344Z,1015.86
2017-07-06T06:53:29.910Z,1015.82
2017-07-06T06:54:10.491Z,1015.86
2017-07-06T06:54:51.113Z,1015.98
2017-07-06T06:55:31.710Z,1015.77
2017-07-06T06:56:12.302Z,1015.73
2017-07-06T06:56:52.865Z,1015.95
2017-07-06T06:57:33.448Z,1016.21
2017-07-06T06:58:14.047Z,1015.69
2017-07-06T06:58:54.636Z,1015.69
2017-07-06T06:59:35.724Z,1015.69
2017-07-06T07:00:17.971Z,1015.68
2017-07-06T07:00:57.825Z,1015.71
2017-07-06T07:01:38.404Z,1015.68
2017-07-06T07:02:18.998Z,1015.65
2017-07-06T07:02:59.578Z,1015.69
2017-07-06T07:03:40.167Z,1015.69
2017-07-06T07:04:20.774Z,1015.68
2017-07-06T07:05:01.350Z,1015.73
2017-07-06T07:05:41.948Z,1015.71
2017-07-06T07:06:22.549Z,1015.71
2017-07-06T07:07:03.166Z,1015.7
2017-07-06T07:07:43.752Z,1015.69
2017-07-06T07:08:24.323Z,1015.71
2017-07-06T07:09:04.943Z,1015.69
2017-07-06T07:09:45.520Z,1015.72
2017-07-06T07:10:26.084Z,1015.69
2017-07-06T07:11:06.661Z,1015.66
2017-07-06T07:11:47.232Z,1015.67
2017-07-06T07:12:27.810Z,1015.71
2017-07-06T07:13:08.381Z,1015.74
2017-07-06T07:13:48.981Z,1015.74
2017-07-06T07:14:29.568Z,1015.68
2017-07-06T07:15:10.152Z,1015.7
2017-07-06T07:15:50.725Z,1015.71
2017-07-06T07:16:31.321Z,1015.73
2017-07-06T07:17:11.923Z,1015.68
2017-07-06T07:17:52.598Z,1015.72
2017-07-06T07:18:33.186Z,1015.76
2017-07-06T07:19:13.771Z,1015.79
2017-07-06T07:19:54.333Z,1015.76
2017-07-06T07:20:34.914Z,1015.77
2017-07-06T07:21:15.490Z,1015.75
2017-07-06T07:21:56.138Z,1015.76
2017-07-06T07:22:36.655Z,1015.88
2017-07-06T07:23:17.231Z,1015.91
2017-07-06T07:23:57.828Z,1015.9
2017-07-06T07:24:38.421Z,1015.99
2017-07-06T07:25:19.228Z,1016.08
2017-07-06T07:26:00.213Z,1016.12
2017-07-06T07:26:40.812Z,1016.48
2017-07-06T07:27:21.402Z,1016.67
2017-07-06T07:28:02.012Z,1016.71
2017-07-06T07:28:42.616Z,1016.62
2017-07-06T07:29:23.219Z,1016.54
2017-07-06T07:30:03.812Z,1016.49
2017-07-06T07:30:44.423Z,1015.93
2017-07-06T07:31:25.067Z,1016.02
2017-07-06T07:32:05.673Z,1016.35
2017-07-06T07:32:46.287Z,1016.22
2017-07-06T07:33:26.881Z,1016.15
2017-07-06T07:34:07.456Z,1016.11
2017-07-06T07:34:48.075Z,1016.12
2017-07-06T07:35:28.695Z,1016.15
2017-07-06T07:36:09.276Z,1016.12
2017-07-06T07:36:49.900Z,1016.12
2017-07-06T07:37:30.501Z,1016.12
2017-07-06T07:38:11.170Z,1016.09
2017-07-06T07:38:51.796Z,1015.88
2017-07-06T07:39:32.764Z,1016
2017-07-06T07:40:13.338Z,1016.01
2017-07-06T07:40:53.911Z,1016.13
2017-07-06T07:41:34.507Z,1015.99
2017-07-06T07:42:15.218Z,1016.08
2017-07-06T07:42:55.802Z,1016.01
2017-07-06T07:43:36.781Z,1016.03
2017-07-06T07:44:17.336Z,1016.03
2017-07-06T07:44:57.998Z,1015.97
2017-07-06T07:45:38.585Z,1016.04
2017-07-06T07:46:19.169Z,1015.97
2017-07-06T07:46:59.825Z,1015.95
2017-07-06T07:47:40.434Z,1015.94
2017-07-06T07:48:21.106Z,1015.93
2017-07-06T07:49:01.848Z,1015.97
2017-07-06T07:49:42.443Z,1015.98
2017-07-06T07:50:23.014Z,1015.98
2017-07-06T07:51:03.584Z,1016.03
2017-07-06T07:51:44.200Z,1016.11
2017-07-06T07:52:24.805Z,1016.11
2017-07-06T07:53:05.387Z,1016.08
2017-07-06T07:53:45.960Z,1015.98
2017-07-06T07:54:26.519Z,1016
2017-07-06T07:55:07.093Z,1016.08
2017-07-06T07:55:47.674Z,1016.01
2017-07-06T07:56:28.246Z,1016
2017-07-06T07:57:08.869Z,1016.01
2017-07-06T07:57:49.533Z,1016.04
2017-07-06T07:58:30.085Z,1016
2017-07-06T07:59:10.666Z,1016.02
2017-07-06T07:59:51.278Z,1016.02
2017-07-06T08:00:31.868Z,1015.96
2017-07-06T08:01:12.461Z,1016.03
2017-07-06T08:01:53.046Z,1015.97
2017-07-06T08:02:33.645Z,1016.01
2017-07-06T08:03:14.215Z,1015.97
2017-07-06T08:03:54.790Z,1016.03
2017-07-06T08:04:35.451Z,1016.04
2017-07-06T08:05:16.023Z,1016.05
2017-07-06T08:05:56.643Z,1016.03
2017-07-06T08:06:37.222Z,1016
2017-07-06T08:07:17.800Z,1016.04
2017-07-06T08:07:58.604Z,1016.06
2017-07-06T08:08:39.173Z,1016.03
2017-07-06T08:09:19.761Z,1016.06
2017-07-06T08:10:00.359Z,1016.08
2017-07-06T08:10:40.930Z,1016.04
2017-07-06T08:11:21.503Z,1016.04
2017-07-06T08:12:02.091Z,1016.03
2017-07-06T08:12:42.654Z,1016